Time;durP1;ratioP1;P1;durP2;ratioP2;P2;SDS_P1;SDS_P2;PMS_P1;PMS_P2;Temp;Humidity;BMP_temperature;BMP_pressure;BME280_temperature;BME280_humidity;BME280_pressure;Samples;Min_cycle;Max_cycle;Signal;HPM_P1;HPM_P2
2022/03/14 00:00:07;;;;;;;2.72;2.53;;;;;;;10.46;nan;101484.50;5053062;28;20107;-55
2022/03/14 00:02:33;;;;;;;2.70;2.50;;;;;;;10.79;nan;101535.56;5054086;28;20472;-55
2022/03/14 00:04:58;;;;;;;2.50;2.25;;;;;;;10.37;nan;101455.75;5052945;28;20033;-58
2022/03/14 00:07:23;;;;;;;2.78;2.58;;;;;;;10.80;nan;101528.53;5054118;28;20254;-54
2022/03/14 00:09:49;;;;;;;2.85;2.63;;;;;;;10.38;nan;101460.13;5053942;28;20032;-53
2022/03/14 00:12:19;;;;;;;2.67;2.42;;;;;;;10.73;nan;101528.66;5053995;28;20037;-57
2022/03/14 00:14:44;;;;;;;2.47;2.28;;;;;;;10.69;nan;101519.09;5054081;28;20047;-59
2022/03/14 00:17:11;;;;;;;3.30;2.53;;;;;;;10.66;nan;101515.66;5053937;28;20384;-54
2022/03/14 00:19:36;;;;;;;2.65;2.45;;;;;;;10.32;nan;101473.41;5053737;28;20088;-53
2022/03/14 00:22:04;;;;;;;2.53;2.33;;;;;;;10.55;nan;101512.38;5052496;28;20428;-56
2022/03/14 00:24:29;;;;;;;3.72;2.22;;;;;;;10.71;nan;101537.50;5052582;28;20037;-57
2022/03/14 00:26:55;;;;;;;3.17;2.20;;;;;;;10.71;nan;101546.25;5072076;28;20048;-57
2022/03/14 00:29:21;;;;;;;2.40;2.20;;;;;;;10.71;nan;101542.78;5073355;28;20044;-55
2022/03/14 00:31:46;;;;;;;2.55;2.35;;;;;;;10.71;nan;101543.59;5073625;28;20041;-57
2022/03/14 00:34:14;;;;;;;3.65;2.10;;;;;;;10.75;nan;101552.31;5073517;28;20059;-60
2022/03/14 00:36:42;;;;;;;2.53;2.30;;;;;;;10.73;nan;101549.72;5073497;28;20025;-57
2022/03/14 00:39:08;;;;;;;2.72;2.53;;;;;;;10.71;nan;101550.66;5073279;28;20045;-55
2022/03/14 00:41:34;;;;;;;2.75;2.55;;;;;;;9.99;nan;101435.47;5055460;28;20039;-58
2022/03/14 00:43:59;;;;;;;3.22;2.80;;;;;;;10.36;nan;101506.63;5073388;28;20553;-57
2022/03/14 00:46:24;;;;;;;4.90;2.63;;;;;;;10.66;nan;101556.00;5073416;28;20161;-55
2022/03/14 00:48:49;;;;;;;2.47;2.28;;;;;;;10.67;nan;101562.16;5072224;28;20528;-57
2022/03/14 00:51:15;;;;;;;2.70;2.50;;;;;;;10.65;nan;101559.53;5055312;28;20040;-55
2022/03/14 00:53:40;;;;;;;2.78;2.58;;;;;;;10.21;nan;101491.19;5072930;28;20111;-53
2022/03/14 00:56:06;;;;;;;4.07;2.60;;;;;;;10.58;nan;101565.84;5055134;28;20097;-54
2022/03/14 00:58:33;;;;;;;2.65;2.45;;;;;;;10.62;nan;101566.66;5072952;28;20028;-56
2022/03/14 01:00:58;;;;;;;3.00;2.80;;;;;;;10.58;nan;101567.59;5073053;28;20060;-54
2022/03/14 01:03:23;;;;;;;3.13;2.53;;;;;;;10.56;nan;101564.16;5073180;28;20135;-57
2022/03/14 01:05:49;;;;;;;3.53;3.22;;;;;;;10.54;nan;101563.28;5055125;28;20039;-56
2022/03/14 01:08:14;;;;;;;2.85;2.65;;;;;;;10.53;nan;101572.09;5073165;28;20024;-55
2022/03/14 01:10:39;;;;;;;3.22;3.00;;;;;;;10.48;nan;101571.31;5071577;28;20043;-55
2022/03/14 01:13:05;;;;;;;3.05;2.75;;;;;;;10.45;nan;101571.41;5054923;28;20494;-57
2022/03/14 01:15:34;;;;;;;3.78;3.35;;;;;;;10.30;nan;101556.78;5072913;28;20054;-57
2022/03/14 01:18:00;;;;;;;3.10;2.80;;;;;;;10.06;nan;101520.41;5055285;28;20060;-53
2022/03/14 01:20:25;;;;;;;3.13;2.83;;;;;;;9.98;nan;101515.25;5054678;28;20067;-54
2022/03/14 01:22:54;;;;;;;3.47;3.17;;;;;;;10.40;nan;101581.13;5072401;28;20188;-57
2022/03/14 01:25:20;;;;;;;3.40;3.10;;;;;;;10.27;nan;101572.63;5072470;28;20048;-57
2022/03/14 01:27:46;;;;;;;3.30;3.00;;;;;;;10.06;nan;101536.19;5054358;28;20043;-55
2022/03/14 01:30:11;;;;;;;3.47;3.17;;;;;;;10.40;nan;101591.66;5054693;28;20033;-54
2022/03/14 01:32:36;;;;;;;4.30;3.90;;;;;;;10.32;nan;101580.44;5054430;28;20455;-58
2022/03/14 01:35:02;;;;;;;3.97;3.05;;;;;;;10.37;nan;101592.59;5072320;28;20039;-56
2022/03/14 01:37:31;;;;;;;3.03;2.67;;;;;;;10.37;nan;101597.84;5072419;28;20483;-59
2022/03/14 01:39:56;;;;;;;3.47;3.17;;;;;;;10.33;nan;101596.19;5072521;28;20041;-54
2022/03/14 01:42:21;;;;;;;3.45;3.15;;;;;;;10.29;nan;101589.25;5072604;28;20033;-54
2022/03/14 01:44:48;;;;;;;3.25;2.97;;;;;;;10.34;nan;101597.03;5054423;28;20040;-58
2022/03/14 01:47:14;;;;;;;3.63;3.28;;;;;;;10.31;nan;101597.09;5071276;28;20024;-56
2022/03/14 01:49:41;;;;;;;3.67;3.38;;;;;;;10.34;nan;101600.53;5054470;28;20028;-57
2022/03/14 01:52:07;;;;;;;3.30;3.00;;;;;;;9.97;nan;101526.69;5072155;28;20028;-54
2022/03/14 01:54:33;;;;;;;3.90;3.55;;;;;;;10.07;nan;101543.16;5072148;28;20036;-56
2022/03/14 01:56:59;;;;;;;4.35;3.45;;;;;;;9.99;nan;101555.59;5054010;28;20458;-56
2022/03/14 01:59:29;;;;;;;4.25;3.72;;;;;;;10.28;nan;101620.84;5053930;28;20049;-58
2022/03/14 02:01:56;;;;;;;4.43;4.03;;;;;;;10.04;nan;101603.75;5070841;28;20373;-57
2022/03/14 02:04:22;;;;;;;5.00;4.60;;;;;;;9.86;nan;101583.88;5072154;28;20040;-53
2022/03/14 02:06:47;;;;;;;5.43;4.97;;;;;;;9.93;nan;101616.19;5071940;28;20498;-54
2022/03/14 02:09:13;;;;;;;5.85;5.35;;;;;;;9.42;nan;101542.59;5071068;28;20112;-53
2022/03/14 02:11:39;;;;;;;6.00;5.50;;;;;;;9.66;nan;101598.28;5072221;28;20036;-56
2022/03/14 02:14:06;;;;;;;6.22;5.63;;;;;;;9.68;nan;101609.63;5071941;28;20415;-56
2022/03/14 02:16:31;;;;;;;5.10;4.70;;;;;;;9.68;nan;101621.00;5072164;28;20036;-56
2022/03/14 02:18:57;;;;;;;6.07;5.57;;;;;;;9.24;nan;101558.63;5071887;28;20036;-53
2022/03/14 02:21:22;;;;;;;6.38;5.88;;;;;;;9.15;nan;101571.03;5071893;28;20040;-56
2022/03/14 02:23:48;;;;;;;6.07;5.47;;;;;;;9.07;nan;101555.41;5054144;28;20108;-56
2022/03/14 02:26:13;;;;;;;6.30;5.80;;;;;;;9.50;nan;101642.31;5071826;28;20555;-56
2022/03/14 02:28:38;;;;;;;6.57;5.97;;;;;;;9.53;nan;101645.78;5071932;28;20037;-56
2022/03/14 02:31:04;;;;;;;5.65;5.15;;;;;;;9.55;nan;101641.34;5071853;28;20472;-58
2022/03/14 02:33:30;;;;;;;7.15;6.55;;;;;;;9.22;nan;101596.34;5071890;28;20040;-55
2022/03/14 02:35:56;;;;;;;6.90;6.30;;;;;;;9.53;nan;101660.66;5071638;28;20039;-57
2022/03/14 02:38:21;;;;;;;7.70;7.00;;;;;;;9.53;nan;101650.16;5072104;28;20028;-57
2022/03/14 02:40:48;;;;;;;8.00;7.20;;;;;;;9.09;nan;101581.63;5053875;28;20480;-53
2022/03/14 02:43:16;;;;;;;8.65;7.85;;;;;;;9.39;nan;101645.13;5070645;28;20029;-59
2022/03/14 02:45:42;;;;;;;10.30;9.18;;;;;;;9.36;nan;101639.03;5071527;28;20542;-58
2022/03/14 02:48:08;;;;;;;9.45;8.63;;;;;;;9.45;nan;101658.16;5071677;28;20036;-56
2022/03/14 02:50:35;;;;;;;11.32;10.27;;;;;;;9.45;nan;101667.81;5071532;28;20029;-56
2022/03/14 02:53:00;;;;;;;11.60;10.50;;;;;;;9.51;nan;101663.34;5071804;28;20032;-57
2022/03/14 02:55:26;;;;;;;12.60;11.20;;;;;;;9.12;nan;101592.09;5071899;28;20062;-56
2022/03/14 02:57:51;;;;;;;13.50;12.25;;;;;;;9.40;nan;101649.47;5053862;28;20098;-58
2022/03/14 03:00:17;;;;;;;15.05;13.55;;;;;;;9.46;nan;101666.88;5071509;28;20040;-56
2022/03/14 03:02:42;;;;;;;15.02;13.52;;;;;;;9.07;nan;101607.06;5071669;28;20037;-57
2022/03/14 03:05:11;;;;;;;15.55;14.10;;;;;;;9.01;nan;101603.63;5071426;28;20086;-52
2022/03/14 03:07:36;;;;;;;15.02;13.63;;;;;;;9.10;nan;101628.03;5053604;28;20074;-57
2022/03/14 03:10:03;;;;;;;14.35;13.02;;;;;;;9.39;nan;101679.28;5053666;28;20041;-59
2022/03/14 03:12:28;;;;;;;12.75;11.55;;;;;;;9.03;nan;101625.47;5073758;28;20480;-55
2022/03/14 03:14:54;;;;;;;13.93;12.45;;;;;;;9.38;nan;101680.16;5075097;28;20085;-53
2022/03/14 03:17:20;;;;;;;14.38;13.07;;;;;;;9.35;nan;101688.06;5057076;28;20040;-58
2022/03/14 03:19:46;;;;;;;14.07;12.77;;;;;;;8.90;nan;101629.13;5056996;28;20051;-56
2022/03/14 03:22:11;;;;;;;13.75;12.48;;;;;;;8.89;nan;101639.69;5075218;28;20033;-54
2022/03/14 03:24:36;;;;;;;14.55;13.15;;;;;;;9.14;nan;101685.72;5057216;28;20040;-56
2022/03/14 03:27:02;;;;;;;14.68;13.27;;;;;;;8.74;nan;101634.63;5074482;28;20075;-58
2022/03/14 03:29:27;;;;;;;14.43;13.10;;;;;;;9.10;nan;101705.06;5057212;28;20041;-57
2022/03/14 03:31:53;;;;;;;15.38;13.98;;;;;;;8.69;nan;101647.81;5074682;28;20029;-57
2022/03/14 03:34:18;;;;;;;16.67;15.07;;;;;;;8.64;nan;101641.72;5056707;28;20107;-53
2022/03/14 03:36:44;;;;;;;18.67;16.75;;;;;;;8.99;nan;101713.06;5074848;28;20050;-57
2022/03/14 03:39:09;;;;;;;18.30;16.52;;;;;;;9.00;nan;101720.06;5074790;28;20028;-57
2022/03/14 03:41:35;;;;;;;19.63;17.67;;;;;;;8.76;nan;101677.44;5074666;28;20037;-57
2022/03/14 03:44:00;;;;;;;20.60;18.50;;;;;;;8.86;nan;101714.09;5074430;28;20036;-56
2022/03/14 03:46:27;;;;;;;20.00;18.10;;;;;;;8.97;nan;101740.22;5074450;28;20036;-53
2022/03/14 03:48:52;;;;;;;21.55;19.45;;;;;;;8.62;nan;101672.38;5074312;28;20494;-53
2022/03/14 03:51:17;;;;;;;21.25;19.15;;;;;;;8.94;nan;101742.88;5074519;28;20119;-56
2022/03/14 03:53:42;;;;;;;20.52;18.52;;;;;;;8.87;nan;101736.81;5074643;28;20395;-56
2022/03/14 03:56:08;;;;;;;19.23;17.38;;;;;;;8.95;nan;101755.13;5074182;28;20031;-56
2022/03/14 03:58:34;;;;;;;17.48;15.63;;;;;;;8.91;nan;101754.28;5074286;28;20373;-56
2022/03/14 04:00:59;;;;;;;17.10;15.30;;;;;;;8.90;nan;101764.81;5056314;28;20502;-55
2022/03/14 04:03:24;;;;;;;16.75;14.55;;;;;;;8.51;nan;101712.72;5073973;28;20028;-56
2022/03/14 04:05:50;;;;;;;17.75;14.57;;;;;;;8.66;nan;101770.31;5074032;28;20033;-59
2022/03/14 04:08:16;;;;;;;16.50;13.73;;;;;;;8.62;nan;101771.22;5074178;28;20117;-57
2022/03/14 04:10:43;;;;;;;16.23;12.73;;;;;;;8.67;nan;101783.41;5074089;28;20039;-51
2022/03/14 04:13:09;;;;;;;14.05;11.95;;;;;;;8.62;nan;101772.09;5074041;28;20037;-53
2022/03/14 04:15:50;;;;;;;18.08;12.68;;;;;;;8.49;nan;101760.00;5074048;28;20136;-57
2022/03/14 04:18:18;;;;;;;14.90;12.00;;;;;;;8.67;nan;101816.69;5074161;28;20077;-56
2022/03/14 04:20:43;;;;;;;15.60;11.68;;;;;;;8.62;nan;101807.97;5073946;28;20064;-56
2022/03/14 04:23:09;;;;;;;17.27;10.45;;;;;;;8.60;nan;101815.88;5073821;28;20068;-60
2022/03/14 04:25:34;;;;;;;12.43;10.20;;;;;;;8.32;nan;101764.50;5055837;28;20094;-56
2022/03/14 04:27:59;;;;;;;17.73;11.77;;;;;;;8.31;nan;101783.75;5055627;28;20033;-59
2022/03/14 04:30:25;;;;;;;16.48;10.70;;;;;;;8.50;nan;101829.94;5073415;28;20510;-56
2022/03/14 04:32:50;;;;;;;12.60;9.90;;;;;;;8.49;nan;101850.06;5055790;28;20037;-59
2022/03/14 04:35:16;;;;;;;12.70;10.00;;;;;;;8.48;nan;101852.69;5073634;28;20441;-56
2022/03/14 04:37:41;;;;;;;12.38;7.97;;;;;;;8.39;nan;101856.25;5073422;28;20419;-57
2022/03/14 04:40:08;;;;;;;18.83;8.70;;;;;;;8.38;nan;101837.91;5073537;28;20090;-57
2022/03/14 04:42:34;;;;;;;13.30;7.82;;;;;;;8.46;nan;101870.22;5055651;28;20040;-53
2022/03/14 04:45:00;;;;;;;13.02;7.28;;;;;;;8.14;nan;101817.94;5055486;28;20152;-59
2022/03/14 04:47:26;;;;;;;14.40;7.35;;;;;;;8.46;nan;101876.31;5055439;28;20344;-59
2022/03/14 04:49:52;;;;;;;14.32;7.32;;;;;;;8.44;nan;101879.84;5073691;28;20028;-56
2022/03/14 04:52:17;;;;;;;10.77;7.35;;;;;;;8.39;nan;101882.50;5072469;28;20039;-56
2022/03/14 04:54:43;;;;;;;12.82;7.60;;;;;;;8.39;nan;101900.00;5039563;28;20395;-60
2022/03/14 04:57:09;;;;;;;12.25;7.43;;;;;;;8.32;nan;101883.41;5073681;28;20037;-57
2022/03/14 04:59:34;;;;;;;12.77;8.05;;;;;;;8.42;nan;101898.22;5072934;28;20127;-57
2022/03/14 05:02:00;;;;;;;11.48;8.02;;;;;;;8.39;nan;101895.63;5072873;28;20033;-59
2022/03/14 05:04:25;;;;;;;10.88;7.45;;;;;;;8.12;nan;101855.53;5073207;28;20051;-51
2022/03/14 05:06:50;;;;;;;13.52;7.75;;;;;;;8.34;nan;101904.41;5071701;28;20071;-60
2022/03/14 05:09:15;;;;;;;15.52;8.00;;;;;;;8.37;nan;101920.13;5072828;28;20089;-58
2022/03/14 05:11:41;;;;;;;14.43;8.25;;;;;;;8.33;nan;101923.63;5054922;28;20037;-55
2022/03/14 05:14:09;;;;;;;13.02;9.30;;;;;;;7.84;nan;101847.84;5072565;28;20029;-58
2022/03/14 05:16:35;;;;;;;16.77;9.55;;;;;;;8.21;nan;101918.41;5072571;28;20385;-57
2022/03/14 05:19:00;;;;;;;15.20;10.60;;;;;;;8.17;nan;101921.97;5054846;28;20029;-58
2022/03/14 05:21:26;;;;;;;14.35;11.52;;;;;;;8.28;nan;101949.91;5072700;28;20304;-54
2022/03/14 05:23:52;;;;;;;18.60;13.32;;;;;;;7.98;nan;101899.31;5054699;28;20123;-57
2022/03/14 05:26:17;;;;;;;18.27;14.40;;;;;;;8.21;nan;101957.75;5072681;28;20044;-55
2022/03/14 05:28:43;;;;;;;21.38;14.70;;;;;;;8.19;nan;101965.66;5072345;28;20044;-59
2022/03/14 05:31:08;;;;;;;20.02;15.15;;;;;;;8.19;nan;101956.91;5072725;28;20037;-54
2022/03/14 05:33:33;;;;;;;23.90;17.15;;;;;;;7.90;nan;101902.88;5054687;28;20089;-57
2022/03/14 05:35:59;;;;;;;20.80;17.05;;;;;;;8.15;nan;101950.81;5072047;28;20044;-57
2022/03/14 05:38:24;;;;;;;22.95;17.98;;;;;;;7.79;nan;101899.41;5072347;28;20033;-54
2022/03/14 05:40:51;;;;;;;25.50;17.35;;;;;;;7.72;nan;101900.31;5072178;28;20117;-57
2022/03/14 05:43:17;;;;;;;19.73;15.90;;;;;;;7.94;nan;101950.88;5054734;28;20036;-55
2022/03/14 05:45:44;;;;;;;20.95;18.00;;;;;;;7.93;nan;101963.16;5069925;28;20039;-58
2022/03/14 05:48:09;;;;;;;23.13;17.58;;;;;;;7.93;nan;101973.63;5054835;28;20462;-56
2022/03/14 05:50:35;;;;;;;22.67;18.35;;;;;;;7.93;nan;101972.75;5053669;28;20107;-54
2022/03/14 05:53:01;;;;;;;24.27;18.35;;;;;;;7.91;nan;101969.25;5072024;28;20024;-59
2022/03/14 05:55:27;;;;;;;21.33;18.67;;;;;;;7.89;nan;101971.91;5034472;28;20119;-55
2022/03/14 05:57:53;;;;;;;24.38;19.17;;;;;;;7.86;nan;101971.91;5034293;28;20047;-56
2022/03/14 06:00:22;;;;;;;24.00;19.05;;;;;;;7.82;nan;101983.25;5059548;28;20032;-58
2022/03/14 06:02:48;;;;;;;22.35;17.88;;;;;;;7.82;nan;101983.25;5074671;28;20046;-57
2022/03/14 06:05:14;;;;;;;21.58;18.15;;;;;;;7.45;nan;101920.47;5056916;28;20398;-56
2022/03/14 06:07:40;;;;;;;19.48;16.27;;;;;;;7.77;nan;101995.50;5072558;28;20070;-58
2022/03/14 06:10:07;;;;;;;19.77;17.67;;;;;;;7.62;nan;101968.47;5092298;28;20044;-57
2022/03/14 06:12:32;;;;;;;18.10;16.27;;;;;;;7.90;nan;102009.47;5092215;28;20036;-56
2022/03/14 06:15:00;;;;;;;19.13;17.13;;;;;;;7.89;nan;102026.06;5074284;28;20108;-60
2022/03/14 06:17:25;;;;;;;17.48;15.55;;;;;;;7.91;nan;102034.78;5074411;28;20035;-57
2022/03/14 06:19:51;;;;;;;19.10;16.33;;;;;;;7.91;nan;102029.53;5092071;28;20028;-58
2022/03/14 06:22:18;;;;;;;18.20;16.13;;;;;;;7.90;nan;102038.31;5091981;28;20459;-56
2022/03/14 06:24:44;;;;;;;18.23;15.93;;;;;;;7.51;nan;101967.63;5078258;28;20526;-56
2022/03/14 06:27:10;;;;;;;19.60;16.15;;;;;;;7.49;nan;101961.53;5048664;28;20102;-57
2022/03/14 06:29:35;;;;;;;17.23;15.52;;;;;;;7.65;nan;101992.91;5050120;28;20044;-59
2022/03/14 06:32:00;;;;;;;18.60;15.77;;;;;;;7.94;nan;102046.16;5050145;28;20041;-55
2022/03/14 06:34:26;;;;;;;17.33;15.45;;;;;;;7.94;nan;102050.50;5051999;28;20037;-58
2022/03/14 06:36:51;;;;;;;20.33;16.33;;;;;;;7.80;nan;102011.25;5051691;28;20033;-59
2022/03/14 06:39:16;;;;;;;20.50;14.95;;;;;;;7.97;nan;102053.13;5033197;28;20044;-55
2022/03/14 06:41:42;;;;;;;17.50;15.50;;;;;;;8.01;nan;102057.50;5033528;28;20431;-60
2022/03/14 06:44:07;;;;;;;18.95;15.93;;;;;;;8.06;nan;102070.59;5051403;28;20029;-57
2022/03/14 06:46:33;;;;;;;17.10;15.20;;;;;;;8.06;nan;102071.47;5034399;28;20033;-58
2022/03/14 06:48:58;;;;;;;18.02;15.48;;;;;;;8.07;nan;102065.34;5055400;28;20041;-57
2022/03/14 06:51:24;;;;;;;19.58;15.95;;;;;;;8.04;nan;102064.47;5055334;28;20037;-55
2022/03/14 06:53:50;;;;;;;18.45;15.45;;;;;;;8.17;nan;102089.81;5037744;28;20041;-58
2022/03/14 06:56:16;;;;;;;19.60;15.77;;;;;;;8.16;nan;102096.81;5055190;28;20037;-57
2022/03/14 06:58:42;;;;;;;17.45;15.63;;;;;;;7.79;nan;102027.81;5055506;28;20041;-56
2022/03/14 07:01:07;;;;;;;18.13;15.48;;;;;;;8.07;nan;102074.97;5055174;28;20388;-58
2022/03/14 07:03:33;;;;;;;17.23;15.40;;;;;;;8.11;nan;102071.47;5055437;28;20064;-58
2022/03/14 07:05:58;;;;;;;18.08;16.17;;;;;;;8.29;nan;102095.06;5055073;28;20075;-57
2022/03/14 07:08:23;;;;;;;22.23;16.52;;;;;;;8.19;nan;102072.31;5037258;28;20061;-55
2022/03/14 07:10:49;;;;;;;17.83;15.65;;;;;;;8.05;nan;102050.50;5055032;28;20028;-58
2022/03/14 07:13:14;;;;;;;18.83;16.02;;;;;;;8.06;nan;102049.59;5054920;28;20029;-56
2022/03/14 07:15:39;;;;;;;16.40;14.73;;;;;;;8.40;nan;102088.03;5055120;28;20029;-58
2022/03/14 07:18:05;;;;;;;18.38;15.77;;;;;;;8.47;nan;102098.47;5037177;28;20036;-59
2022/03/14 07:20:30;;;;;;;17.67;15.25;;;;;;;8.49;nan;102101.13;5037028;28;20029;-58
2022/03/14 07:22:57;;;;;;;20.02;16.08;;;;;;;8.16;nan;102043.47;5020619;28;20025;-58
2022/03/14 07:25:24;;;;;;;18.20;16.30;;;;;;;8.21;nan;102053.06;5054514;28;20169;-54
2022/03/14 07:27:51;;;;;;;17.90;14.88;;;;;;;8.68;nan;102110.63;5053285;28;20045;-53
2022/03/14 07:30:17;;;;;;;18.58;14.20;;;;;;;8.35;nan;102050.41;5053293;28;20041;-57
2022/03/14 07:32:42;;;;;;;18.40;14.77;;;;;;;8.38;nan;102048.66;5054684;28;20095;-54
2022/03/14 07:35:09;;;;;;;15.68;14.10;;;;;;;8.88;nan;102127.16;5036657;28;20037;-57
2022/03/14 07:37:35;;;;;;;19.27;16.00;;;;;;;8.90;nan;102120.16;5054792;28;20033;-58
2022/03/14 07:40:00;;;;;;;18.58;15.55;;;;;;;8.65;nan;102065.16;5036684;28;20373;-58
2022/03/14 07:42:26;;;;;;;21.38;16.48;;;;;;;8.92;nan;102107.03;5054516;28;20495;-58
2022/03/14 07:44:51;;;;;;;18.98;16.98;;;;;;;9.12;nan;102134.03;5054550;28;20037;-57
2022/03/14 07:47:16;;;;;;;19.55;17.45;;;;;;;9.21;nan;102135.75;5053156;28;20040;-54
2022/03/14 07:49:42;;;;;;;27.50;23.25;;;;;;;9.18;nan;102122.63;5035360;28;20033;-55
2022/03/14 07:52:07;;;;;;;31.77;24.90;;;;;;;8.93;nan;102078.13;5035034;28;20044;-53
2022/03/14 07:54:33;;;;;;;39.75;31.23;;;;;;;9.36;nan;102160.19;5053298;28;20442;-57
2022/03/14 07:56:59;;;;;;;38.80;32.90;;;;;;;9.43;nan;102158.34;5035417;28;20085;-56
2022/03/14 07:59:24;;;;;;;41.28;32.45;;;;;;;9.01;nan;102097.34;5034929;28;20120;-55
2022/03/14 08:01:50;;;;;;;39.13;32.58;;;;;;;9.13;nan;102120.03;5034541;28;20457;-56
2022/03/14 08:04:15;;;;;;;44.67;35.00;;;;;;;9.10;nan;102119.19;5018247;28;20408;-58
2022/03/14 08:06:43;;;;;;;42.63;34.88;;;;;;;9.44;nan;102192.53;5018745;28;20047;-57
2022/03/14 08:09:09;;;;;;;40.58;33.20;;;;;;;9.41;nan;102194.28;5052380;28;20043;-56
2022/03/14 08:11:35;;;;;;;43.08;35.60;;;;;;;9.35;nan;102183.81;5034110;28;20029;-58
2022/03/14 08:14:02;;;;;;;40.25;34.88;;;;;;;9.17;nan;102168.16;5051641;28;20113;-56
2022/03/14 08:16:27;;;;;;;41.97;33.45;;;;;;;9.29;nan;102192.63;5052190;28;20064;-52
2022/03/14 08:18:53;;;;;;;38.97;32.10;;;;;;;9.00;nan;102153.38;5034652;28;20484;-57
2022/03/14 08:21:18;;;;;;;34.05;28.02;;;;;;;9.09;nan;102169.97;5052462;28;20037;-56
2022/03/14 08:23:45;;;;;;;28.20;25.25;;;;;;;9.39;nan;102222.34;5052310;28;20388;-56
2022/03/14 08:26:10;;;;;;;27.85;24.77;;;;;;;9.39;nan;102232.88;5052151;28;20064;-57
2022/03/14 08:28:36;;;;;;;26.38;23.60;;;;;;;9.38;nan;102236.34;5051996;28;20041;-56
2022/03/14 08:31:01;;;;;;;28.90;23.77;;;;;;;9.31;nan;102219.75;5033449;28;20538;-57
2022/03/14 08:33:28;;;;;;;27.13;24.08;;;;;;;9.33;nan;102227.63;5051137;28;20082;-58
2022/03/14 08:35:59;;;;;;;29.25;26.15;;;;;;;9.36;nan;102227.63;5052556;28;20025;-58
2022/03/14 08:38:25;;;;;;;31.05;27.27;;;;;;;9.44;nan;102238.97;5035154;28;20116;-57
2022/03/14 08:40:50;;;;;;;32.00;26.23;;;;;;;9.52;nan;102245.91;5052127;28;20048;-57
2022/03/14 08:43:16;;;;;;;31.10;25.13;;;;;;;9.53;nan;102231.03;5034228;28;20037;-56
2022/03/14 08:45:43;;;;;;;33.95;26.23;;;;;;;9.71;nan;102258.97;5051955;28;20483;-53
2022/03/14 08:48:10;;;;;;;31.08;26.08;;;;;;;9.72;nan;102253.69;5051546;28;20025;-53
2022/03/14 08:50:37;;;;;;;30.92;27.80;;;;;;;9.81;nan;102264.13;5033734;28;20040;-56
2022/03/14 08:53:03;;;;;;;39.30;30.80;;;;;;;9.48;nan;102190.75;5051648;28;20033;-55
2022/03/14 08:55:28;;;;;;;35.38;30.05;;;;;;;9.99;nan;102273.66;5051795;28;20039;-53
2022/03/14 08:57:54;;;;;;;34.28;28.35;;;;;;;9.63;nan;102224.84;5033922;28;20492;-51
2022/03/14 09:00:22;;;;;;;33.85;29.23;;;;;;;10.04;nan;102285.88;5033534;28;20065;-53
2022/03/14 09:02:47;;;;;;;33.80;29.13;;;;;;;10.13;nan;102282.34;5034039;28;20537;-55
2022/03/14 09:05:13;;;;;;;33.45;27.38;;;;;;;10.15;nan;102277.97;5051362;28;20028;-55
2022/03/14 09:07:38;;;;;;;29.33;25.58;;;;;;;10.29;nan;102294.50;5051360;28;20129;-57
2022/03/14 09:10:06;;;;;;;32.70;25.48;;;;;;;10.34;nan;102313.75;5050532;28;20033;-56
2022/03/14 09:12:33;;;;;;;28.15;25.15;;;;;;;10.03;nan;102244.69;5050407;28;20032;-58
2022/03/14 09:14:58;;;;;;;29.42;23.52;;;;;;;10.27;nan;102300.69;5050311;28;20445;-60
2022/03/14 09:17:25;;;;;;;25.20;21.77;;;;;;;10.35;nan;102305.00;5033666;28;20120;-54
2022/03/14 09:19:50;;;;;;;25.92;22.60;;;;;;;10.04;nan;102241.16;5051512;28;20048;-56
2022/03/14 09:22:18;;;;;;;24.85;21.23;;;;;;;10.48;nan;102313.63;5051011;28;20104;-55
2022/03/14 09:24:46;;;;;;;25.05;20.52;;;;;;;10.54;nan;102317.09;5051488;28;20033;-54
2022/03/14 09:27:11;;;;;;;25.20;20.42;;;;;;;10.30;nan;102258.56;5033171;28;20049;-50
2022/03/14 09:29:37;;;;;;;26.27;21.02;;;;;;;10.83;nan;102318.63;5051062;28;20106;-53
2022/03/14 09:32:02;;;;;;;26.52;23.00;;;;;;;10.92;nan;102319.38;5050888;28;20036;-57
2022/03/14 09:34:28;;;;;;;29.83;22.65;;;;;;;9.96;nan;102150.06;5050756;28;20037;-54
2022/03/14 09:36:55;;;;;;;31.90;25.15;;;;;;;11.08;nan;102336.78;5050987;28;20047;-52
2022/03/14 09:39:21;;;;;;;30.50;25.00;;;;;;;10.81;nan;102272.94;5033445;28;20040;-56
2022/03/14 09:41:49;;;;;;;28.42;24.52;;;;;;;11.13;nan;102329.69;5050981;28;20408;-56
2022/03/14 09:44:18;;;;;;;27.50;23.10;;;;;;;11.09;nan;102287.59;5033486;28;20051;-52
2022/03/14 09:46:45;;;;;;;24.60;22.02;;;;;;;11.49;nan;102359.16;5050922;28;20373;-55
2022/03/14 09:49:13;;;;;;;30.10;24.88;;;;;;;11.50;nan;102363.53;5049618;28;20044;-56
2022/03/14 09:51:39;;;;;;;28.80;24.25;;;;;;;11.42;nan;102368.00;5050842;28;20106;-54
2022/03/14 09:54:07;;;;;;;28.58;23.67;;;;;;;11.00;nan;102295.59;5050912;28;20075;-54
2022/03/14 09:56:32;;;;;;;26.92;23.90;;;;;;;11.23;nan;102346.28;5050751;28;20033;-54
2022/03/14 09:58:59;;;;;;;28.38;24.65;;;;;;;11.45;nan;102376.78;5032973;28;20381;-57
2022/03/14 10:01:25;;;;;;;25.70;22.95;;;;;;;11.58;nan;102367.84;5051009;28;20044;-57
2022/03/14 10:03:51;;;;;;;27.98;22.50;;;;;;;11.79;nan;102367.56;5051183;28;20036;-58
2022/03/14 10:06:18;;;;;;;30.27;23.92;;;;;;;11.93;nan;102375.31;5051113;28;20040;-55
2022/03/14 10:08:44;;;;;;;24.10;19.17;;;;;;;12.16;nan;102364.44;5050693;28;20040;-55
2022/03/14 10:11:09;;;;;;;27.63;17.83;;;;;;;12.23;nan;102382.78;5050528;28;20056;-56
2022/03/14 10:13:36;;;;;;;18.13;14.57;;;;;;;12.05;nan;102358.44;5016717;28;20032;-54
2022/03/14 10:16:03;;;;;;;18.67;14.38;;;;;;;12.36;nan;102388.78;5050514;28;20033;-54
2022/03/14 10:18:34;;;;;;;18.42;13.82;;;;;;;12.70;nan;102378.53;5050543;28;20041;-51
2022/03/14 10:21:07;;;;;;;20.63;13.38;;;;;;;13.56;nan;102368.16;5051063;28;20091;-52
2022/03/14 10:23:36;;;;;;;13.80;11.88;;;;;;;14.59;nan;102346.34;5054747;28;20061;-51
2022/03/14 10:26:02;;;;;;;17.33;11.77;;;;;;;15.72;nan;102352.13;5036530;28;20184;-54
2022/03/14 10:28:31;;;;;;;12.45;9.20;;;;;;;17.67;nan;102397.88;5036658;28;20498;-53
2022/03/14 10:31:00;;;;;;;11.02;8.40;;;;;;;18.42;nan;102378.91;5054377;28;20040;-51
2022/03/14 10:33:27;;;;;;;9.52;7.93;;;;;;;19.70;nan;102449.09;5036745;28;20095;-53
2022/03/14 10:35:55;;;;;;;11.55;9.02;;;;;;;19.06;nan;102457.19;5054515;28;20033;-57
2022/03/14 10:38:21;;;;;;;12.93;9.70;;;;;;;18.10;nan;102439.75;5054350;28;20544;-52
2022/03/14 10:40:47;;;;;;;13.02;9.57;;;;;;;18.42;nan;102466.03;5054076;28;20045;-51
2022/03/14 10:43:28;;;;;;;11.63;7.82;;;;;;;17.63;nan;102466.34;5036760;28;20147;-56
2022/03/14 10:45:57;;;;;;;14.73;7.95;;;;;;;17.97;nan;102444.69;5054336;28;20106;-53
2022/03/14 10:48:38;;;;;;;12.07;7.70;;;;;;;17.76;nan;102403.75;5054478;28;20480;-51
2022/03/14 10:51:08;;;;;;;11.68;7.35;;;;;;;16.54;nan;102413.34;5054012;28;20037;-55
2022/03/14 10:53:39;;;;;;;14.68;8.38;;;;;;;16.08;nan;102405.91;5036132;28;20025;-57
2022/03/14 10:56:05;;;;;;;12.23;8.35;;;;;;;15.68;nan;102475.22;5036067;28;20549;-55
2022/03/14 10:58:34;;;;;;;13.00;9.05;;;;;;;15.68;nan;102459.31;5035861;28;20033;-49
2022/03/14 11:01:04;;;;;;;16.38;8.07;;;;;;;16.31;nan;102420.22;5053779;28;20040;-53
2022/03/14 11:03:30;;;;;;;10.50;8.07;;;;;;;17.07;nan;102488.72;5053869;28;20025;-55
2022/03/14 11:05:58;;;;;;;12.68;9.15;;;;;;;16.53;nan;102481.56;5053941;28;20025;-56
2022/03/14 11:08:30;;;;;;;14.18;8.50;;;;;;;16.14;nan;102493.41;5053468;28;20029;-57
2022/03/14 11:10:57;;;;;;;16.35;8.10;;;;;;;15.52;nan;102495.16;5053786;28;20033;-53
2022/03/14 11:13:23;;;;;;;12.48;8.20;;;;;;;14.50;nan;102415.50;5053677;28;20048;-55
2022/03/14 11:15:49;;;;;;;13.98;8.43;;;;;;;14.27;nan;102424.84;5035825;28;20468;-51
2022/03/14 11:18:16;;;;;;;13.15;8.25;;;;;;;14.85;nan;102491.53;5053662;28;20035;-56
2022/03/14 11:20:42;;;;;;;13.32;10.10;;;;;;;15.44;nan;102478.53;5053619;28;20136;-52
2022/03/14 11:23:09;;;;;;;11.55;8.80;;;;;;;16.11;nan;102510.28;5035544;28;20116;-52
2022/03/14 11:25:37;;;;;;;14.07;9.77;;;;;;;15.59;nan;102449.81;5053295;28;20066;-53
2022/03/14 11:28:03;;;;;;;9.60;8.18;;;;;;;15.64;nan;102497.47;5071837;28;20080;-57
2022/03/14 11:30:29;;;;;;;12.90;8.00;;;;;;;15.64;nan;102439.09;5054969;28;20064;-57